• Join FlightAware (Why Join?)
  • Login
  • US Flag 
05:37PM EDT


 

Airport Tracker/Info


-or-


 

Live Flight TrackerFlight Track Log ✈ LYM752 ✈ 01-May-2013 ✈ KRIW - KDEN

Flight Track Log - Related Links

Times and Time Zones

All times are in EDT time to prevent confusion due to time zone crossing. See the LYM752 flight status page for this flight to view local times or setup timezone preferences in your user account.

Time Position Orientation Groundspeed Altitude Reporting Facility
EDT Latitude Longitude Course Direction KTS MPH feet Rate Location/Type
09:19PM 43.0000 -108.3119 130° Southeast 185 213 15,600  Level Denver Center
09:20PM 42.9625 -108.2503 130° Southeast 200 230 17,300 1,500 Climbing Salt Lake Center
09:21PM 42.9200 -108.1808 130° Southeast 216 249 18,700 1,260 Climbing Salt Lake Center
09:22PM 42.8861 -108.1097 123° Southeast 226 260 19,900 1,080 Climbing Salt Lake Center
09:23PM 42.8442 -108.0225 123° Southeast 242 278 21,000 480 Climbing Salt Lake Center
09:24PM 42.8008 -107.9408 126° Southeast 275 316 21,000 -60 Level Salt Lake Center
09:25PM 42.7461 -107.8589 132° Southeast 300 345 20,900  Descending Salt Lake Center
09:26PM 42.6836 -107.7603 131° Southeast 307 353 21,000  Climbing Salt Lake Center
09:27PM 42.6289 -107.6747 131° Southeast 312 359 20,900  Descending Salt Lake Center
09:28PM 42.5658 -107.5750 131° Southeast 312 359 21,000  Climbing Salt Lake Center
09:29PM 42.5125 -107.4900 130° Southeast 310 357 20,900  Descending Salt Lake Center
09:30PM 42.4594 -107.4042 130° Southeast 311 358 21,000  Climbing Salt Lake Center
09:31PM 42.3981 -107.3036 130° Southeast 310 357 21,000 -60 Level Denver Center
09:32PM 42.3547 -107.2317 129° Southeast 309 356 20,900  Descending Denver Center
09:33PM 42.2797 -107.1194 132° Southeast 312 359 21,000  Climbing Denver Center
09:34PM 42.2239 -107.0367 132° Southeast 312 359 21,000 -60 Level Denver Center
09:35PM 42.1592 -106.9411 132° Southeast 310 357 20,900  Descending Denver Center
09:37PM 42.0542 -106.7756 130° Southeast 305 351 21,000  Climbing Denver Center
09:38PM 41.9947 -106.6825 131° Southeast 296 341 21,000  Level Denver Center
09:39PM 41.9378 -106.6039 134° Southeast 302 348 21,000  Level Denver Center
09:40PM 41.8761 -106.5122 132° Southeast 297 342 21,000  Level Denver Center
09:41PM 41.8222 -106.4325 132° Southeast 299 344 21,000  Level Denver Center
09:43PM 41.7589 -106.3406 133° Southeast 299 344 21,000  Level Denver Center
09:44PM 41.7042 -106.2631 133° Southeast 300 345 21,000  Level Denver Center
09:45PM 41.6525 -106.1847 131° Southeast 296 341 21,000  Level Denver Center
09:46PM 41.5917 -106.0922 131° Southeast 296 341 21,000 -300 Level Denver Center
09:47PM 41.5383 -106.0111 131° Southeast 301 346 20,500 -660 Descending Denver Center
09:48PM 41.4711 -105.9206 135° Southeast 307 353 19,700 -780 Descending Denver Center
09:49PM 41.4169 -105.8325 129° Southeast 317 365 19,000 -840 Descending Denver Center
09:50PM 41.3478 -105.7381 134° Southeast 320 368 18,000 -720 Descending Denver Center
09:51PM 41.2908 -105.6522 131° Southeast 323 372 17,600 -660 Descending Denver Center
09:52PM 41.2375 -105.5650 129° Southeast 321 369 16,700 -1,080 Descending Denver Center
09:53PM 41.1706 -105.4681 133° Southeast 319 367 15,400 -1,080 Descending Denver Center
09:54PM 41.1125 -105.3839 132° Southeast 322 371 14,500 -780 Descending Denver Center
09:55PM 41.0483 -105.2842 130° Southeast 319 367 13,900 -600 Descending Denver Center
09:56PM 40.9914 -105.2050 134° Southeast 315 362 13,300 -480 Descending Denver Center
09:57PM 40.9333 -105.1211 132° Southeast 309 356 13,000 -180 Descending Denver Center
09:58PM 40.8764 -105.0375 132° Southeast 304 350 13,000  Level Denver Center
09:59PM 40.8192 -104.9589 134° Southeast 298 343 13,100  Climbing Denver Center
10:00PM 40.7581 -104.8839 137° Southeast 305 351 13,000 -120 Descending Denver Center
10:01PM 40.6800 -104.8192 148° Southeast 299 344 12,900 -240 Descending Denver Center
10:02PM 40.6042 -104.7617 150° Southeast 293 337 12,600 -600 Descending Denver Center
10:03PM 40.5358 -104.7061 148° Southeast 289 333 11,700 -720 Descending Denver Center
10:04PM 40.4653 -104.6481 148° Southeast 297 342 11,200 -300 Descending Denver Center
10:05PM 40.3986 -104.5914 147° Southeast 289 333 11,100 -60 Descending Denver Center
10:06PM 40.3231 -104.5414 153° Southeast 283 326 11,100  Level Denver Center
10:07PM 40.2425 -104.5356 177° South 283 326 11,100  Level Denver Center
10:08PM 40.1619 -104.5292 177° South 287 330 11,100  Level Denver Center
10:09PM 40.0767 -104.5208 176° South 284 327 11,100  Level Denver Center
10:09PM 40.0667 -104.5167 162° South 286 329 11,100  Level Denver TRACON
10:11PM 39.9667 -104.5167 180° South 286 329 11,100  Level Denver TRACON
10:12PM 39.8411 -104.5017 175° South 273 314 11,100 -180 Level Denver Center
10:13PM 39.7639 -104.4964 177° South 259 298 10,700 -660 Descending Denver Center
10:14PM 39.6931 -104.4944 179° South 254 292 9,800 -960 Descending Denver Center
10:15PM 39.6222 -104.4900 177° South 254 292 8,800 -840 Descending Denver Center
10:16PM 39.5797 -104.5586 231° Southwest 275 316 8,100 -360 Descending Denver Center
10:17PM 39.6008 -104.6478 287° West 266 306 8,100  Level Denver Center
10:18PM 39.6708 -104.6436 North 255 293 8,100 -120 Level Denver Center
10:19PM 39.7264 -104.6439 360° North 196 226 7,900 -660 Descending Denver Center
10:20PM 39.7722 -104.6431 North 158 182 6,800 -960 Descending Denver Center
10:21PM 39.8089 -104.6425 North 133 153 6,000 -660 Descending Denver Center
10:23PM 39.8447 -104.6425 360° North 124 143 5,500 -540 Descending Denver Center